Time;durP1;ratioP1;P1;durP2;ratioP2;P2;SDS_P1;SDS_P2;PMS_P1;PMS_P2;Temp;Humidity;BMP_temperature;BMP_pressure;BME280_temperature;BME280_humidity;BME280_pressure;Samples;Min_cycle;Max_cycle;Signal;HPM_P1;HPM_P2
2023/09/22 00:00:15;;;;;;;0.25;0.10;;;15.00;99.90;;;;;;4982485;28;20034;-83
2023/09/22 00:02:45;;;;;;;0.03;0.03;;;15.00;99.90;;;;;;4977400;28;20087;-83
2023/09/22 00:05:13;;;;;;;0.10;0.10;;;15.00;99.90;;;;;;4976964;28;20042;-84
2023/09/22 00:07:43;;;;;;;0.25;0.25;;;14.90;99.90;;;;;;4959114;28;20034;-83
2023/09/22 00:10:10;;;;;;;0.00;0.00;;;14.90;99.90;;;;;;4975468;28;20118;-84
2023/09/22 00:12:36;;;;;;;0.28;0.28;;;14.80;99.90;;;;;;4964960;28;20035;-83
2023/09/22 00:15:03;;;;;;;0.20;0.13;;;14.80;99.90;;;;;;4970804;28;20034;-84
2023/09/22 00:17:29;;;;;;;0.32;0.28;;;14.70;99.90;;;;;;4974982;28;20032;-84
2023/09/22 00:19:55;;;;;;;0.15;0.13;;;14.70;99.90;;;;;;4972581;28;20042;-81
2023/09/22 00:22:22;;;;;;;0.22;0.22;;;14.70;99.90;;;;;;4976750;28;20467;-83
2023/09/22 00:24:50;;;;;;;0.55;0.32;;;14.70;99.90;;;;;;4979123;28;20397;-83
2023/09/22 00:27:16;;;;;;;0.10;0.10;;;14.60;99.90;;;;;;4978116;28;20030;-83
2023/09/22 00:29:42;;;;;;;0.50;0.40;;;14.60;99.90;;;;;;4972684;28;20031;-83
2023/09/22 00:32:08;;;;;;;0.10;0.10;;;14.60;99.90;;;;;;4957195;28;20062;-83
2023/09/22 00:34:34;;;;;;;0.20;0.20;;;14.60;99.90;;;;;;4958309;28;20039;-83
2023/09/22 00:37:00;;;;;;;0.10;0.10;;;14.60;99.90;;;;;;4959929;28;20038;-83
2023/09/22 00:39:28;;;;;;;0.10;0.10;;;14.50;99.90;;;;;;4963181;28;20372;-83
2023/09/22 00:41:55;;;;;;;0.15;0.15;;;14.50;99.90;;;;;;4978955;28;20046;-81
2023/09/22 00:44:21;;;;;;;0.10;0.10;;;14.50;99.90;;;;;;4963147;28;20039;-83
2023/09/22 00:46:47;;;;;;;0.75;0.75;;;14.50;99.90;;;;;;4978255;28;20041;-83
2023/09/22 00:49:14;;;;;;;0.32;0.22;;;14.50;99.90;;;;;;4915455;29;20039;-83
2023/09/22 00:51:40;;;;;;;0.10;0.10;;;14.40;99.90;;;;;;4929887;29;20052;-83
2023/09/22 00:54:07;;;;;;;0.10;0.10;;;14.50;99.90;;;;;;4932271;29;20051;-83
2023/09/22 00:56:33;;;;;;;0.08;0.08;;;14.40;99.90;;;;;;4917101;29;20044;-83
2023/09/22 00:58:59;;;;;;;0.10;0.10;;;14.30;99.90;;;;;;4930884;29;20044;-83
2023/09/22 01:01:25;;;;;;;0.00;0.00;;;14.30;99.90;;;;;;4931542;29;20059;-83
2023/09/22 01:03:53;;;;;;;0.10;0.10;;;14.30;99.90;;;;;;4932831;29;20082;-84
2023/09/22 01:06:19;;;;;;;0.20;0.20;;;14.30;99.90;;;;;;4916134;29;20048;-84
2023/09/22 01:08:45;;;;;;;0.10;0.10;;;14.20;99.90;;;;;;4931491;29;20074;-84
2023/09/22 01:11:12;;;;;;;0.10;0.10;;;14.30;99.90;;;;;;4931677;29;20055;-83
2023/09/22 01:13:38;;;;;;;0.40;0.10;;;14.20;99.90;;;;;;4933687;29;20604;-84
2023/09/22 01:16:04;;;;;;;0.10;0.10;;;14.20;99.90;;;;;;4931965;29;20153;-84
2023/09/22 01:18:30;;;;;;;0.10;0.10;;;14.20;99.90;;;;;;4931397;29;20507;-84
2023/09/22 01:20:59;;;;;;;0.10;0.10;;;14.20;99.90;;;;;;4956651;28;20404;-81
2023/09/22 01:23:25;;;;;;;0.45;0.45;;;14.20;99.90;;;;;;4971351;28;20380;-84
2023/09/22 01:25:51;;;;;;;0.20;0.20;;;14.10;99.90;;;;;;4964593;28;20149;-84
2023/09/22 01:28:18;;;;;;;0.10;0.10;;;14.10;99.90;;;;;;4977546;28;20043;-83
2023/09/22 01:30:44;;;;;;;0.20;0.20;;;14.10;99.90;;;;;;4971114;28;20035;-84
2023/09/22 01:33:10;;;;;;;0.20;0.20;;;14.00;99.90;;;;;;4973198;28;20127;-84
2023/09/22 01:35:37;;;;;;;0.10;0.10;;;14.00;99.90;;;;;;4974557;28;20070;-83
2023/09/22 01:38:26;;;;;;;0.30;0.20;;;13.90;99.90;;;;;;4968591;28;20042;-83
2023/09/22 01:40:54;;;;;;;0.10;0.10;;;14.00;99.90;;;;;;4968803;28;20462;-84
2023/09/22 01:43:20;;;;;;;0.20;0.20;;;14.00;99.90;;;;;;4972544;28;20041;-84
2023/09/22 01:45:46;;;;;;;0.10;0.10;;;14.00;99.90;;;;;;4970047;28;20045;-84
2023/09/22 01:48:13;;;;;;;0.85;0.85;;;13.90;99.90;;;;;;4975478;28;20047;-83
2023/09/22 01:50:41;;;;;;;0.10;0.10;;;13.90;99.90;;;;;;4979747;28;20391;-83
2023/09/22 01:53:11;;;;;;;0.17;0.17;;;13.90;99.90;;;;;;4967590;28;20057;-82
2023/09/22 01:55:38;;;;;;;0.10;0.10;;;13.90;99.90;;;;;;4976560;28;20440;-84
2023/09/22 01:58:07;;;;;;;0.10;0.10;;;13.90;99.90;;;;;;4956381;28;20050;-84
2023/09/22 02:00:34;;;;;;;0.10;0.10;;;13.90;99.90;;;;;;4976088;28;20038;-83
2023/09/22 02:03:01;;;;;;;0.73;0.55;;;13.90;99.90;;;;;;4951553;28;20053;-84
2023/09/22 02:05:27;;;;;;;2.08;0.20;;;13.80;99.90;;;;;;4964550;28;20031;-84
2023/09/22 02:07:53;;;;;;;0.10;0.10;;;13.90;99.90;;;;;;4975211;28;20464;-83
2023/09/22 02:10:20;;;;;;;0.13;0.13;;;13.80;99.90;;;;;;4960361;28;20038;-83
2023/09/22 02:12:46;;;;;;;0.40;0.40;;;13.90;99.90;;;;;;4959119;28;20066;-82
2023/09/22 02:15:13;;;;;;;0.08;0.08;;;13.90;99.90;;;;;;4977692;28;20045;-84
2023/09/22 02:17:44;;;;;;;0.10;0.10;;;13.80;99.90;;;;;;4979902;28;20039;-81
2023/09/22 02:20:18;;;;;;;0.08;0.08;;;13.80;99.90;;;;;;4969876;28;20031;-83
2023/09/22 02:22:45;;;;;;;0.15;0.15;;;13.90;99.90;;;;;;4946640;28;20058;-83
2023/09/22 02:25:13;;;;;;;0.20;0.20;;;13.80;99.90;;;;;;4972887;28;20039;-85
2023/09/22 02:27:40;;;;;;;0.10;0.10;;;13.80;99.90;;;;;;4965873;28;20066;-82
2023/09/22 02:30:10;;;;;;;0.32;0.15;;;13.80;99.90;;;;;;4947078;28;20043;-84
2023/09/22 02:32:38;;;;;;;0.10;0.10;;;13.80;99.90;;;;;;4960755;28;20419;-84
2023/09/22 02:35:05;;;;;;;0.20;0.20;;;13.80;99.90;;;;;;4979437;28;20386;-84
2023/09/22 02:37:31;;;;;;;0.10;0.10;;;13.80;99.90;;;;;;4970672;28;20050;-84
2023/09/22 02:39:58;;;;;;;0.10;0.10;;;13.80;99.90;;;;;;4950897;28;20050;-81
2023/09/22 02:42:24;;;;;;;0.10;0.10;;;13.80;99.90;;;;;;4976527;28;20042;-84
2023/09/22 02:44:50;;;;;;;0.30;0.30;;;13.80;99.90;;;;;;4957943;28;20054;-83
2023/09/22 02:47:17;;;;;;;0.10;0.10;;;13.80;99.90;;;;;;4979689;28;20041;-84
2023/09/22 02:49:43;;;;;;;0.10;0.10;;;13.80;99.90;;;;;;4949625;28;20121;-84
2023/09/22 02:52:09;;;;;;;0.13;0.13;;;13.70;99.90;;;;;;4973609;28;20034;-84
2023/09/22 02:54:35;;;;;;;0.10;0.10;;;13.70;99.90;;;;;;4979644;28;20395;-84
2023/09/22 02:57:03;;;;;;;0.10;0.10;;;13.70;99.90;;;;;;4974891;28;20038;-81
2023/09/22 02:59:31;;;;;;;0.10;0.10;;;13.70;99.90;;;;;;4977077;28;20048;-84
2023/09/22 03:01:57;;;;;;;0.10;0.10;;;13.70;99.90;;;;;;4973304;28;20489;-83
2023/09/22 03:04:23;;;;;;;0.55;0.50;;;13.60;99.90;;;;;;4974500;28;20042;-84
2023/09/22 03:06:50;;;;;;;0.10;0.10;;;13.60;99.90;;;;;;4955555;28;20455;-84
2023/09/22 03:09:17;;;;;;;0.05;0.05;;;13.60;99.90;;;;;;4949886;28;20504;-84
2023/09/22 03:11:43;;;;;;;0.03;0.03;;;13.60;99.90;;;;;;4949955;28;20043;-85
2023/09/22 03:14:09;;;;;;;0.10;0.10;;;13.60;99.90;;;;;;4978251;28;20045;-84
2023/09/22 03:16:36;;;;;;;0.52;0.35;;;13.50;99.90;;;;;;4962291;28;20521;-85
2023/09/22 03:19:03;;;;;;;0.10;0.10;;;13.50;99.90;;;;;;4963838;28;20057;-81
2023/09/22 03:21:29;;;;;;;0.03;0.03;;;13.50;99.90;;;;;;4956750;28;20052;-85
2023/09/22 03:23:55;;;;;;;0.55;0.43;;;13.60;99.90;;;;;;4969389;28;20066;-85
2023/09/22 03:26:22;;;;;;;0.10;0.10;;;13.60;99.90;;;;;;4971820;28;20031;-84
2023/09/22 03:28:48;;;;;;;0.57;0.57;;;13.60;99.90;;;;;;4973081;28;20038;-84
2023/09/22 03:31:22;;;;;;;0.03;0.03;;;13.60;99.90;;;;;;4953267;28;20050;-84
2023/09/22 03:33:50;;;;;;;0.10;0.10;;;13.50;99.90;;;;;;4969119;28;20058;-85
2023/09/22 03:36:19;;;;;;;0.17;0.10;;;13.60;99.90;;;;;;4968546;28;20050;-83
2023/09/22 03:38:47;;;;;;;0.10;0.10;;;13.50;99.90;;;;;;4940635;28;20043;-85
2023/09/22 03:41:15;;;;;;;0.10;0.10;;;13.60;99.90;;;;;;4959504;28;20039;-84
2023/09/22 03:43:43;;;;;;;0.30;0.30;;;13.60;99.90;;;;;;4950192;28;20046;-84
2023/09/22 03:46:10;;;;;;;0.20;0.10;;;13.60;99.90;;;;;;4971510;28;20051;-85
2023/09/22 03:48:37;;;;;;;0.10;0.10;;;13.60;99.90;;;;;;4948220;28;20043;-85
2023/09/22 03:51:04;;;;;;;0.10;0.10;;;13.60;99.90;;;;;;4974465;28;20053;-82
2023/09/22 03:53:31;;;;;;;0.10;0.10;;;13.60;99.90;;;;;;4954157;28;20433;-85
2023/09/22 03:56:00;;;;;;;0.10;0.10;;;13.70;99.90;;;;;;4947666;28;20035;-84
2023/09/22 03:58:26;;;;;;;0.20;0.20;;;13.70;99.90;;;;;;4945362;28;20046;-85
2023/09/22 04:01:05;;;;;;;0.10;0.10;;;13.70;99.90;;;;;;4960492;28;20069;-84
2023/09/22 04:03:31;;;;;;;0.35;0.35;;;13.70;99.90;;;;;;4955576;28;20039;-85
2023/09/22 04:05:58;;;;;;;0.10;0.10;;;13.70;99.90;;;;;;4969671;28;20038;-84
2023/09/22 04:08:24;;;;;;;0.10;0.10;;;13.70;99.90;;;;;;4958386;28;20128;-85
2023/09/22 04:10:51;;;;;;;0.17;0.17;;;13.70;99.90;;;;;;4969433;28;20050;-85
2023/09/22 04:13:18;;;;;;;0.20;0.20;;;13.80;99.90;;;;;;4954094;28;20050;-86
2023/09/22 04:15:45;;;;;;;0.20;0.15;;;13.80;99.90;;;;;;4951944;28;20057;-85
2023/09/22 04:18:13;;;;;;;0.10;0.10;;;13.80;99.90;;;;;;4968478;28;20030;-86
2023/09/22 04:20:43;;;;;;;0.25;0.13;;;13.70;99.90;;;;;;4977392;28;20026;-86
2023/09/22 04:23:10;;;;;;;;;;;13.80;99.90;;;;;;4965820;28;20046;-84
2023/09/22 04:25:37;;;;;;;0.50;0.50;;;13.80;99.90;;;;;;4963296;28;19917;-86
2023/09/22 04:28:11;;;;;;;0.10;0.10;;;13.80;99.90;;;;;;4973046;28;20032;-83
2023/09/22 04:30:38;;;;;;;0.30;0.30;;;13.80;99.90;;;;;;4970155;28;20038;-84
2023/09/22 04:33:05;;;;;;;0.43;0.30;;;13.70;99.90;;;;;;4973096;28;20261;-83
2023/09/22 04:35:36;;;;;;;0.40;0.40;;;13.70;99.90;;;;;;4941403;28;20452;-85
2023/09/22 04:38:04;;;;;;;;;;;13.70;99.90;;;;;;4969674;28;20388;-84
2023/09/22 04:40:36;;;;;;;0.25;0.20;;;13.70;99.90;;;;;;4955265;28;20281;-83
2023/09/22 04:43:07;;;;;;;0.52;0.43;;;13.70;99.90;;;;;;4988528;28;20102;-84
2023/09/22 04:45:37;;;;;;;0.20;0.20;;;13.80;99.90;;;;;;4978141;28;20034;-84
2023/09/22 04:48:07;;;;;;;2.33;0.35;;;13.80;99.90;;;;;;4956809;28;20034;-84
2023/09/22 04:50:33;;;;;;;0.10;0.10;;;13.80;99.90;;;;;;4938286;28;20046;-88
2023/09/22 04:53:00;;;;;;;0.30;0.25;;;13.90;99.90;;;;;;4972248;28;20039;-89
2023/09/22 04:55:29;;;;;;;0.20;0.20;;;13.90;99.90;;;;;;4970973;28;20031;-88
2023/09/22 04:57:56;;;;;;;0.50;0.50;;;14.00;99.90;;;;;;4953817;28;20034;-89
2023/09/22 05:00:24;;;;;;;1.17;0.40;;;14.00;99.90;;;;;;4957557;28;20043;-88
2023/09/22 05:02:52;;;;;;;0.90;0.43;;;14.00;99.90;;;;;;4976714;28;20046;-89
2023/09/22 05:05:19;;;;;;;0.22;0.20;;;14.00;99.90;;;;;;4972987;28;20035;-90
2023/09/22 05:07:46;;;;;;;4.20;0.20;;;14.00;99.90;;;;;;4962701;28;20047;-88
2023/09/22 05:10:12;;;;;;;0.10;0.10;;;14.00;99.90;;;;;;4981874;28;20384;-91
2023/09/22 05:12:39;;;;;;;0.65;0.40;;;14.00;99.90;;;;;;4953085;28;20388;-88
2023/09/22 05:15:06;;;;;;;0.30;0.30;;;14.00;99.90;;;;;;4967979;28;20388;-91
2023/09/22 05:17:33;;;;;;;0.55;0.55;;;14.00;99.90;;;;;;4961789;28;20496;-90
2023/09/22 05:19:59;;;;;;;0.10;0.10;;;14.00;99.90;;;;;;4973875;28;20030;-89
2023/09/22 05:22:25;;;;;;;0.47;0.30;;;14.00;99.90;;;;;;4965056;28;20039;-91
2023/09/22 05:24:51;;;;;;;2.55;0.70;;;14.00;99.90;;;;;;4959047;28;20023;-90
2023/09/22 05:27:17;;;;;;;0.10;0.10;;;14.00;99.90;;;;;;4978508;28;20043;-88
2023/09/22 05:29:44;;;;;;;1.27;0.50;;;14.00;99.90;;;;;;4962232;28;20487;-85
2023/09/22 05:32:10;;;;;;;0.20;0.20;;;14.00;99.90;;;;;;4951999;28;20062;-80
2023/09/22 05:34:39;;;;;;;0.10;0.10;;;14.00;99.90;;;;;;4982524;28;20042;-85
2023/09/22 05:37:06;;;;;;;0.10;0.10;;;14.00;99.90;;;;;;4960660;28;20051;-85
2023/09/22 05:39:33;;;;;;;0.20;0.20;;;13.90;99.90;;;;;;4951042;28;20039;-86
2023/09/22 05:42:00;;;;;;;0.65;0.28;;;14.00;99.90;;;;;;4972722;28;20034;-86
2023/09/22 05:44:28;;;;;;;0.15;0.15;;;14.00;99.90;;;;;;4955028;28;20051;-88
2023/09/22 05:46:55;;;;;;;0.55;0.45;;;14.00;99.90;;;;;;4938072;28;20051;-87
2023/09/22 05:49:21;;;;;;;0.82;0.40;;;14.00;99.90;;;;;;4971346;28;20046;-86
2023/09/22 05:51:49;;;;;;;0.43;0.25;;;14.00;99.90;;;;;;4965016;28;20035;-87
2023/09/22 05:54:15;;;;;;;0.10;0.10;;;14.10;99.90;;;;;;4952529;28;20055;-87
2023/09/22 05:56:42;;;;;;;0.90;0.40;;;14.10;99.90;;;;;;4954779;28;20027;-88
2023/09/22 05:59:08;;;;;;;0.10;0.10;;;14.10;99.90;;;;;;4955894;28;20061;-83
2023/09/22 06:01:36;;;;;;;0.13;0.13;;;14.10;99.90;;;;;;4974732;28;20039;-85
2023/09/22 06:04:04;;;;;;;0.30;0.30;;;14.20;99.90;;;;;;4969399;28;20146;-84
2023/09/22 06:06:32;;;;;;;0.15;0.10;;;14.10;99.90;;;;;;4960157;28;20482;-86
2023/09/22 06:08:59;;;;;;;0.25;0.25;;;14.10;99.90;;;;;;4957961;28;20046;-84
2023/09/22 06:11:26;;;;;;;0.35;0.28;;;14.20;99.90;;;;;;4957720;28;20034;-86
2023/09/22 06:13:52;;;;;;;0.35;0.20;;;14.20;99.90;;;;;;4954883;28;20074;-84
2023/09/22 06:16:19;;;;;;;0.38;0.20;;;14.20;92.10;;;;;;4975192;28;20042;-86
2023/09/22 06:18:45;;;;;;;0.55;0.55;;;14.20;56.10;;;;;;4955087;28;20410;-85
2023/09/22 06:21:11;;;;;;;3.03;0.52;;;14.20;5.90;;;;;;4972133;28;20034;-84
2023/09/22 06:23:40;;;;;;;0.30;0.30;;;14.20;1.00;;;;;;4957374;28;20047;-83
2023/09/22 06:26:10;;;;;;;0.10;0.10;;;14.20;1.00;;;;;;4949121;28;20126;-86
2023/09/22 06:28:38;;;;;;;0.10;0.10;;;14.30;1.00;;;;;;4968253;28;20039;-86
2023/09/22 06:31:05;;;;;;;0.30;0.30;;;14.30;1.00;;;;;;4973655;28;20023;-86
2023/09/22 06:33:32;;;;;;;0.00;0.00;;;14.30;1.00;;;;;;4978899;28;20130;-84
2023/09/22 06:36:03;;;;;;;0.10;0.10;;;14.30;1.00;;;;;;4958898;28;20046;-88
2023/09/22 06:38:29;;;;;;;;;;;14.30;1.00;;;;;;4971529;28;20031;-88
2023/09/22 06:40:56;;;;;;;0.13;0.03;;;14.30;1.00;;;;;;4952899;28;19923;-88
2023/09/22 06:43:26;;;;;;;0.05;0.05;;;14.40;1.00;;;;;;4975614;28;20057;-87
2023/09/22 06:45:52;;;;;;;0.10;0.10;;;14.40;1.00;;;;;;4936719;28;20121;-85
2023/09/22 06:48:22;;;;;;;0.85;0.20;;;14.40;1.00;;;;;;4959400;28;20275;-85
2023/09/22 06:50:51;;;;;;;0.10;0.10;;;14.40;1.00;;;;;;4969813;28;20408;-84
2023/09/22 06:53:18;;;;;;;0.10;0.10;;;14.40;1.00;;;;;;4963339;28;20050;-82
2023/09/22 06:55:44;;;;;;;0.00;0.00;;;14.40;1.00;;;;;;4955470;28;20031;-83
2023/09/22 06:58:11;;;;;;;0.73;0.43;;;14.40;1.00;;;;;;4974902;28;20039;-85
2023/09/22 07:00:38;;;;;;;0.00;0.00;;;14.40;1.00;;;;;;4959598;28;20034;-86
2023/09/22 07:03:05;;;;;;;0.75;0.10;;;14.30;1.00;;;;;;4955223;28;20051;-86
2023/09/22 07:05:31;;;;;;;0.80;0.65;;;14.30;99.90;;;;;;4973722;28;20672;-84
2023/09/22 07:07:58;;;;;;;0.10;0.10;;;14.30;99.90;;;;;;4959492;28;20042;-83
2023/09/22 07:10:24;;;;;;;0.10;0.10;;;14.30;99.90;;;;;;4971739;28;20035;-84
2023/09/22 07:12:51;;;;;;;0.10;0.10;;;14.30;99.90;;;;;;4968075;28;20399;-84
2023/09/22 07:15:17;;;;;;;0.10;0.10;;;14.40;99.90;;;;;;4971426;28;20027;-84
2023/09/22 07:17:44;;;;;;;0.00;0.00;;;14.40;99.90;;;;;;4981298;28;20027;-83
2023/09/22 07:20:13;;;;;;;0.00;0.00;;;14.40;99.90;;;;;;4957967;28;20054;-83
2023/09/22 07:22:42;;;;;;;0.00;0.00;;;14.50;99.90;;;;;;4959317;28;20046;-84
2023/09/22 07:25:08;;;;;;;0.10;0.10;;;14.50;99.90;;;;;;4959736;28;20035;-84
2023/09/22 07:27:36;;;;;;;0.13;0.13;;;14.50;99.90;;;;;;4972238;28;20046;-83
2023/09/22 07:30:09;;;;;;;0.20;0.20;;;14.50;99.90;;;;;;4970395;28;20039;-84
2023/09/22 07:32:39;;;;;;;2.08;0.40;;;14.50;99.90;;;;;;4964642;28;20066;-83
2023/09/22 07:35:07;;;;;;;0.10;0.10;;;14.50;99.90;;;;;;4970705;28;20047;-84
2023/09/22 07:37:33;;;;;;;0.00;0.00;;;14.50;99.90;;;;;;4954864;28;20286;-85
2023/09/22 07:40:00;;;;;;;0.32;0.10;;;14.40;99.90;;;;;;4974219;28;20035;-85
2023/09/22 07:42:31;;;;;;;0.03;0.03;;;14.50;99.90;;;;;;4962355;28;20061;-85
2023/09/22 07:44:57;;;;;;;0.03;0.03;;;14.60;99.90;;;;;;4958178;28;20065;-85
2023/09/22 07:47:25;;;;;;;0.20;0.20;;;14.80;99.90;;;;;;4950794;28;20045;-84
2023/09/22 07:49:54;;;;;;;0.17;0.13;;;14.80;99.90;;;;;;4975397;28;20045;-84
2023/09/22 07:52:20;;;;;;;0.30;0.30;;;14.70;99.90;;;;;;4974210;28;20587;-85
2023/09/22 07:54:47;;;;;;;3.95;0.70;;;14.80;99.90;;;;;;4971111;28;20035;-84
2023/09/22 07:57:13;;;;;;;0.47;0.38;;;14.90;99.90;;;;;;4949395;28;20058;-84
2023/09/22 07:59:41;;;;;;;0.10;0.10;;;15.00;99.90;;;;;;4962518;28;20472;-83
2023/09/22 08:02:08;;;;;;;0.32;0.25;;;15.00;99.90;;;;;;4976667;28;20045;-85
2023/09/22 08:04:34;;;;;;;0.00;0.00;;;15.10;99.90;;;;;;4972749;28;20273;-84
2023/09/22 08:07:00;;;;;;;6.32;1.00;;;15.30;99.90;;;;;;4975587;28;20045;-84
2023/09/22 08:09:27;;;;;;;0.57;0.20;;;15.40;99.90;;;;;;4963247;28;20073;-84
2023/09/22 08:11:54;;;;;;;0.10;0.10;;;15.50;99.90;;;;;;4933783;29;20059;-85
2023/09/22 08:14:21;;;;;;;0.10;0.10;;;15.60;99.90;;;;;;4932351;29;20044;-84
2023/09/22 08:16:48;;;;;;;0.68;0.40;;;15.70;99.90;;;;;;4938912;29;20452;-86
2023/09/22 08:19:15;;;;;;;0.03;0.03;;;15.70;49.50;;;;;;4931693;29;20036;-85
2023/09/22 08:21:41;;;;;;;0.10;0.10;;;15.50;2.30;;;;;;4931646;29;20040;-85
2023/09/22 08:24:08;;;;;;;0.10;0.10;;;15.50;17.10;;;;;;4912266;29;20040;-85
2023/09/22 08:26:34;;;;;;;0.10;0.10;;;15.30;1.00;;;;;;4933890;29;20063;-84
2023/09/22 08:29:01;;;;;;;5.22;1.77;;;15.40;42.60;;;;;;4930650;29;20047;-83
2023/09/22 08:31:29;;;;;;;0.20;0.20;;;15.30;47.80;;;;;;4924039;29;20044;-84
2023/09/22 08:33:55;;;;;;;0.30;0.30;;;15.30;19.40;;;;;;4928788;29;20069;-85
2023/09/22 08:36:22;;;;;;;1.95;0.20;;;15.30;1.00;;;;;;4924413;29;20036;-83
2023/09/22 08:38:48;;;;;;;0.10;0.10;;;15.30;33.20;;;;;;4922146;29;20172;-84
2023/09/22 08:41:15;;;;;;;0.52;0.45;;;15.30;25.20;;;;;;4925681;29;20035;-84
2023/09/22 08:43:41;;;;;;;0.08;0.08;;;15.40;10.80;;;;;;4959349;28;20054;-84
2023/09/22 08:46:07;;;;;;;0.10;0.10;;;15.80;25.70;;;;;;4964895;28;20475;-84
2023/09/22 08:48:34;;;;;;;0.00;0.00;;;16.10;1.00;;;;;;4958585;28;20034;-83
2023/09/22 08:51:02;;;;;;;0.77;0.77;;;16.50;1.00;;;;;;4977666;28;20399;-83
2023/09/22 08:53:29;;;;;;;0.57;0.57;;;17.20;1.00;;;;;;4978468;28;20415;-83
2023/09/22 08:55:56;;;;;;;0.20;0.20;;;18.20;99.90;;;;;;4954190;28;20058;-83
2023/09/22 08:58:22;;;;;;;0.25;0.25;;;18.30;99.90;;;;;;4968479;28;20031;-84
2023/09/22 09:00:51;;;;;;;0.10;0.10;;;18.50;99.90;;;;;;4959817;28;20046;-81
2023/09/22 09:03:20;;;;;;;1.05;0.55;;;18.60;99.80;;;;;;4969107;28;20087;-83
2023/09/22 09:05:47;;;;;;;0.10;0.10;;;18.30;24.10;;;;;;4963642;28;20047;-82
2023/09/22 09:08:23;;;;;;;0.20;0.20;;;17.90;29.60;;;;;;4962674;28;20041;-83
2023/09/22 09:10:50;;;;;;;0.10;0.10;;;17.80;43.10;;;;;;4980909;28;20365;-81
2023/09/22 09:13:27;;;;;;;0.30;0.30;;;17.60;1.00;;;;;;4975096;28;20755;-82
2023/09/22 09:15:54;;;;;;;0.10;0.10;;;17.60;1.00;;;;;;4975584;28;20030;-81
2023/09/22 09:18:23;;;;;;;0.10;0.10;;;17.80;1.00;;;;;;4973845;28;20030;-82
2023/09/22 09:21:20;;;;;;;0.10;0.10;;;17.80;99.90;;;;;;4982317;28;20038;-84
2023/09/22 09:23:54;;;;;;;0.80;0.60;;;18.50;99.90;;;;;;4965570;28;20039;-83
2023/09/22 09:26:27;;;;;;;0.10;0.10;;;20.10;99.90;;;;;;4966629;28;20038;-84
2023/09/22 09:28:54;;;;;;;0.10;0.10;;;20.90;99.90;;;;;;4981433;28;20026;-82
2023/09/22 09:31:41;;;;;;;0.10;0.10;;;20.80;1.00;;;;;;4959231;28;20043;-84
2023/09/22 09:34:07;;;;;;;0.10;0.10;;;20.40;1.00;;;;;;4978526;28;20074;-82
2023/09/22 09:36:33;;;;;;;0.30;0.30;;;19.80;1.00;;;;;;4958973;28;20053;-84
2023/09/22 09:38:59;;;;;;;1.00;0.68;;;19.40;1.00;;;;;;4954116;28;20043;-84
2023/09/22 09:41:27;;;;;;;0.20;0.20;;;19.70;1.00;;;;;;4970962;28;20026;-84
2023/09/22 09:43:55;;;;;;;0.20;0.20;;;20.20;99.90;;;;;;4960068;28;20037;-83
2023/09/22 09:46:21;;;;;;;0.10;0.10;;;20.40;99.90;;;;;;4969901;28;20030;-85
2023/09/22 09:48:51;;;;;;;0.55;0.55;;;20.50;99.90;;;;;;4975030;28;20037;-84
2023/09/22 09:51:20;;;;;;;0.17;0.17;;;20.10;99.90;;;;;;4968076;28;20030;-82
2023/09/22 09:53:48;;;;;;;0.63;0.43;;;20.00;99.90;;;;;;4976048;28;20039;-83
2023/09/22 09:56:16;;;;;;;0.10;0.10;;;19.80;99.90;;;;;;4979211;28;20057;-82
2023/09/22 09:58:45;;;;;;;0.75;0.32;;;19.60;99.90;;;;;;4972272;28;20123;-83
2023/09/22 10:01:13;;;;;;;0.10;0.10;;;19.20;99.90;;;;;;4958715;28;20479;-85
2023/09/22 10:03:40;;;;;;;0.38;0.20;;;19.10;99.90;;;;;;4969219;28;20542;-86
2023/09/22 10:06:09;;;;;;;0.10;0.10;;;18.80;99.90;;;;;;4968943;28;20452;-83
2023/09/22 10:08:37;;;;;;;0.50;0.50;;;18.50;99.90;;;;;;4976432;28;20099;-84
2023/09/22 10:11:07;;;;;;;0.10;0.10;;;18.30;99.90;;;;;;4958570;28;20050;-84
2023/09/22 10:13:35;;;;;;;0.93;0.30;;;18.20;99.90;;;;;;4947384;28;20046;-82
2023/09/22 10:16:04;;;;;;;0.60;0.60;;;18.20;1.00;;;;;;4976202;28;20042;-83
2023/09/22 10:18:56;;;;;;;0.10;0.10;;;18.00;1.00;;;;;;4974507;28;20034;-83
2023/09/22 10:21:28;;;;;;;0.20;0.20;;;17.80;1.00;;;;;;4968559;28;20062;-83
2023/09/22 10:24:24;;;;;;;0.40;0.20;;;17.80;1.00;;;;;;4969791;28;20045;-83
2023/09/22 10:26:56;;;;;;;0.22;0.20;;;17.80;1.00;;;;;;4972335;28;20034;-83
2023/09/22 10:29:37;;;;;;;0.68;0.68;;;18.00;1.00;;;;;;4949038;28;20043;-84
2023/09/22 10:32:15;;;;;;;0.70;0.63;;;18.20;1.00;;;;;;4970594;28;20396;-83
2023/09/22 10:35:14;;;;;;;0.30;0.30;;;18.40;1.00;;;;;;4975540;28;20042;-83
2023/09/22 10:38:02;;;;;;;0.20;0.20;;;18.60;99.90;;;;;;4971608;28;20507;-83
2023/09/22 10:40:28;;;;;;;0.85;0.20;;;18.90;99.90;;;;;;4972219;28;20041;-82
2023/09/22 10:42:55;;;;;;;0.20;0.20;;;19.40;99.90;;;;;;4980527;28;20031;-82
2023/09/22 10:45:25;;;;;;;0.45;0.45;;;19.90;99.90;;;;;;4971845;28;20034;-82
2023/09/22 10:47:52;;;;;;;0.60;0.30;;;20.10;99.90;;;;;;4983170;28;20465;-83
2023/09/22 10:50:33;;;;;;;2.83;1.48;;;19.90;99.90;;;;;;4983178;28;20035;-83
2023/09/22 10:53:06;;;;;;;0.10;0.10;;;19.70;99.90;;;;;;4973525;28;20054;-82
2023/09/22 10:55:37;;;;;;;1.08;0.90;;;19.40;99.90;;;;;;4976396;28;20035;-83
2023/09/22 10:58:08;;;;;;;0.70;0.32;;;19.40;99.90;;;;;;4958283;28;20346;-83
2023/09/22 11:00:44;;;;;;;1.02;0.65;;;19.40;99.90;;;;;;4957831;28;20353;-82
2023/09/22 11:03:12;;;;;;;0.20;0.20;;;19.40;99.90;;;;;;4953163;28;20046;-82
2023/09/22 11:05:41;;;;;;;0.17;0.17;;;19.70;99.90;;;;;;4962040;28;20035;-83
2023/09/22 11:08:13;;;;;;;0.10;0.10;;;20.00;99.90;;;;;;4952747;28;20404;-83
2023/09/22 11:10:46;;;;;;;0.10;0.10;;;20.20;99.90;;;;;;4963976;28;20054;-81
2023/09/22 11:13:14;;;;;;;0.10;0.10;;;20.40;99.90;;;;;;4948328;28;20401;-82
2023/09/22 11:15:51;;;;;;;0.30;0.30;;;20.40;99.90;;;;;;4961883;28;20042;-82
2023/09/22 11:18:35;;;;;;;0.10;0.10;;;20.40;99.90;;;;;;4980305;28;20046;-84
2023/09/22 11:21:10;;;;;;;0.22;0.22;;;20.20;99.90;;;;;;4978301;28;20038;-83
2023/09/22 11:23:41;;;;;;;0.20;0.10;;;20.30;99.90;;;;;;4978318;28;20050;-83
2023/09/22 11:26:12;;;;;;;0.38;0.17;;;20.30;99.90;;;;;;4979613;28;20069;-84
2023/09/22 11:28:48;;;;;;;1.65;0.85;;;20.40;99.90;;;;;;4975030;28;20035;-85
2023/09/22 11:31:19;;;;;;;0.55;0.55;;;20.20;99.90;;;;;;4946417;28;20142;-83
2023/09/22 11:33:58;;;;;;;0.10;0.10;;;20.10;99.90;;;;;;4972700;28;20054;-84
2023/09/22 11:36:24;;;;;;;0.30;0.30;;;20.10;99.90;;;;;;4971663;28;20034;-84
2023/09/22 11:38:54;;;;;;;0.10;0.10;;;20.10;99.90;;;;;;4976864;28;20034;-83
2023/09/22 11:41:22;;;;;;;1.37;0.77;;;20.00;99.90;;;;;;4969151;28;20031;-83
2023/09/22 11:43:51;;;;;;;0.10;0.10;;;19.80;99.90;;;;;;4974320;28;20035;-82
2023/09/22 11:46:28;;;;;;;0.10;0.10;;;19.70;99.90;;;;;;4967109;28;20042;-82
2023/09/22 11:49:01;;;;;;;0.30;0.30;;;19.80;99.90;;;;;;4979463;28;20034;-83
2023/09/22 11:51:40;;;;;;;0.38;0.38;;;19.70;99.90;;;;;;4983872;28;20050;-82
2023/09/22 11:54:12;;;;;;;1.13;0.38;;;19.80;99.90;;;;;;4954918;28;20055;-82
2023/09/22 11:56:38;;;;;;;0.35;0.35;;;19.90;99.90;;;;;;4969303;28;20121;-83
2023/09/22 11:59:05;;;;;;;0.20;0.20;;;20.00;99.90;;;;;;4955380;28;20053;-83
2023/09/22 12:01:32;;;;;;;0.10;0.10;;;20.30;99.90;;;;;;4983149;28;20035;-81
2023/09/22 12:03:58;;;;;;;0.40;0.25;;;20.50;99.90;;;;;;4983716;28;20062;-81
2023/09/22 12:06:24;;;;;;;0.30;0.13;;;20.60;99.90;;;;;;4960607;28;20050;-81
2023/09/22 12:08:51;;;;;;;0.10;0.10;;;20.60;99.90;;;;;;4980561;28;20031;-84
2023/09/22 12:11:18;;;;;;;0.13;0.13;;;20.70;99.90;;;;;;4975519;28;20034;-82
2023/09/22 12:13:46;;;;;;;0.10;0.10;;;20.60;99.90;;;;;;4954633;28;20047;-80
2023/09/22 12:16:13;;;;;;;0.10;0.10;;;20.50;99.90;;;;;;4971539;28;20027;-82
2023/09/22 12:18:39;;;;;;;0.20;0.20;;;20.40;99.90;;;;;;4975180;28;20075;-82
2023/09/22 12:21:05;;;;;;;0.10;0.10;;;20.50;99.90;;;;;;4982635;28;20042;-84
2023/09/22 12:23:34;;;;;;;0.57;0.45;;;20.60;99.00;;;;;;4973916;28;20053;-83
2023/09/22 12:26:03;;;;;;;0.10;0.10;;;20.70;94.60;;;;;;4982905;28;20039;-83
2023/09/22 12:28:30;;;;;;;0.90;0.70;;;20.80;99.90;;;;;;4937285;28;20042;-83
2023/09/22 12:30:56;;;;;;;0.25;0.25;;;20.60;99.90;;;;;;4976204;28;20043;-83
2023/09/22 12:33:22;;;;;;;0.10;0.10;;;20.40;99.90;;;;;;4965830;28;20054;-83
2023/09/22 12:35:54;;;;;;;0.10;0.10;;;20.70;99.90;;;;;;4974852;28;20130;-82
2023/09/22 12:38:24;;;;;;;0.30;0.30;;;20.90;98.70;;;;;;4972182;28;20035;-83
2023/09/22 12:40:51;;;;;;;0.63;0.63;;;21.20;90.60;;;;;;4948862;28;20050;-84
2023/09/22 12:43:18;;;;;;;0.17;0.17;;;21.30;75.90;;;;;;4987338;28;20035;-84
2023/09/22 12:45:44;;;;;;;0.10;0.10;;;21.30;85.70;;;;;;4980708;28;20132;-86
2023/09/22 12:48:11;;;;;;;0.10;0.10;;;21.30;89.40;;;;;;4974304;28;20038;-83
2023/09/22 12:50:37;;;;;;;0.20;0.20;;;21.60;99.90;;;;;;4980420;28;20041;-83
2023/09/22 12:53:04;;;;;;;0.20;0.20;;;21.70;61.30;;;;;;4959663;28;20054;-84